createdAt,value
2022-11-20T00:01:15.186Z,100462.13
2022-11-20T00:03:43.510Z,100462.13
2022-11-20T00:06:13.590Z,100457.00
2022-11-20T00:08:41.643Z,100456.19
2022-11-20T00:11:15.487Z,100452.91
2022-11-20T00:13:44.235Z,100452.69
2022-11-20T00:16:13.191Z,100443.66
2022-11-20T00:18:43.155Z,100451.88
2022-11-20T00:21:13.907Z,100444.06
2022-11-20T00:23:42.386Z,100450.63
2022-11-20T00:26:11.819Z,100450.63
2022-11-20T00:28:39.737Z,100449.59
2022-11-20T00:31:08.847Z,100444.88
2022-11-20T00:33:36.861Z,100446.53
2022-11-20T00:36:05.796Z,100445.69
2022-11-20T00:38:35.906Z,100445.69
2022-11-20T00:41:04.915Z,100454.75
2022-11-20T00:43:32.867Z,100450.44
2022-11-20T00:46:00.854Z,100450.22
2022-11-20T00:48:29.112Z,100444.69
2022-11-20T00:50:57.795Z,100441.59
2022-11-20T00:53:25.849Z,100438.91
2022-11-20T00:55:59.053Z,100441.97
2022-11-20T00:58:27.501Z,100442.19
2022-11-20T01:00:55.502Z,100446.09
2022-11-20T01:03:27.058Z,100443.25
2022-11-20T01:05:55.148Z,100443.03
2022-11-20T01:08:23.008Z,100439.34
2022-11-20T01:10:50.987Z,100438.53
2022-11-20T01:13:37.705Z,100437.91
2022-11-20T01:16:06.163Z,100436.84
2022-11-20T01:18:34.351Z,100439.13
2022-11-20T01:21:03.399Z,100439.94
2022-11-20T01:23:35.021Z,100438.09
2022-11-20T01:26:03.595Z,100433.56
2022-11-20T01:28:32.863Z,100429.25
2022-11-20T01:31:00.868Z,100425.16
2022-11-20T01:33:29.121Z,100428.44
2022-11-20T01:36:05.181Z,100423.53
2022-11-20T01:38:33.195Z,100413.84
2022-11-20T01:41:01.321Z,100414.28
2022-11-20T01:43:29.443Z,100414.69
2022-11-20T01:46:03.274Z,100409.75
2022-11-20T01:48:34.141Z,100408.94
2022-11-20T01:51:02.884Z,100412.25
2022-11-20T01:53:33.195Z,100402.78
2022-11-20T01:56:02.310Z,100398.91
2022-11-20T01:58:31.991Z,100402.16
2022-11-20T02:00:59.855Z,100398.88
2022-11-20T02:03:29.628Z,100399.31
2022-11-20T02:05:59.629Z,100400.94
2022-11-20T02:08:27.576Z,100403.59
2022-11-20T02:10:55.590Z,100400.09
2022-11-20T02:13:41.177Z,100412.63
2022-11-20T02:16:10.735Z,100418.56
2022-11-20T02:18:40.366Z,100407.91
2022-11-20T02:21:09.216Z,100405.84
2022-11-20T02:23:40.331Z,100401.31
2022-11-20T02:26:13.578Z,100395.19
2022-11-20T02:28:41.661Z,100381.63
2022-11-20T02:31:09.672Z,100380.78
2022-11-20T02:33:38.137Z,100386.53
2022-11-20T02:36:10.445Z,100390.66
2022-11-20T02:38:38.269Z,100382.44
2022-11-20T02:41:06.311Z,100382.44
2022-11-20T02:43:35.473Z,100369.72
2022-11-20T02:46:03.349Z,100369.72
2022-11-20T02:48:33.781Z,100370.31
2022-11-20T02:51:02.294Z,100370.94
2022-11-20T02:53:30.129Z,100374.66
2022-11-20T02:55:57.995Z,100373.81
2022-11-20T02:58:25.886Z,100370.94
2022-11-20T03:00:55.359Z,100368.06
2022-11-20T03:03:23.388Z,100367.69
2022-11-20T03:05:51.275Z,100375.47
2022-11-20T03:08:19.129Z,100371.34
2022-11-20T03:10:47.065Z,100369.50
2022-11-20T03:13:14.919Z,100367.47
2022-11-20T03:15:42.999Z,100369.31
2022-11-20T03:18:12.164Z,100369.31
2022-11-20T03:20:39.957Z,100355.97
2022-11-20T03:23:07.833Z,100360.28
2022-11-20T03:25:36.444Z,100360.28
2022-11-20T03:28:04.512Z,100359.06
2022-11-20T03:30:33.423Z,100356.78
2022-11-20T03:33:01.324Z,100351.66
2022-11-20T03:35:30.588Z,100351.03
2022-11-20T03:37:59.189Z,100355.34
2022-11-20T03:40:27.234Z,100352.91
2022-11-20T03:42:55.073Z,100351.06
2022-11-20T03:45:23.002Z,100356.59
2022-11-20T03:47:50.960Z,100348.78
2022-11-20T03:50:18.921Z,100352.69
2022-11-20T03:52:48.285Z,100356.38
2022-11-20T03:55:16.270Z,100348.38
2022-11-20T03:57:44.120Z,100350.41
2022-11-20T04:00:12.718Z,100337.25
2022-11-20T04:02:40.582Z,100333.38
2022-11-20T04:05:08.792Z,100332.75
2022-11-20T04:07:37.231Z,100341.56
2022-11-20T04:10:07.084Z,100333.56
2022-11-20T04:12:35.439Z,100330.31
2022-11-20T04:15:03.260Z,100323.72
2022-11-20T04:17:31.793Z,100327.81
2022-11-20T04:19:59.666Z,100329.47
2022-11-20T04:22:27.567Z,100329.28
2022-11-20T04:24:55.478Z,100326.81
2022-11-20T04:27:24.662Z,100321.28
2022-11-20T04:29:52.635Z,100320.44
2022-11-20T04:32:20.495Z,100330.28
2022-11-20T04:34:49.777Z,100331.09
2022-11-20T04:37:17.647Z,100336.88
2022-11-20T04:39:45.657Z,100331.53
2022-11-20T04:42:32.070Z,100332.78
2022-11-20T04:45:01.404Z,100337.28
2022-11-20T04:47:29.458Z,100347.34
2022-11-20T04:49:57.439Z,100341.19
2022-11-20T04:52:25.406Z,100335.63
2022-11-20T04:54:54.301Z,100331.91
2022-11-20T04:57:22.317Z,100331.06
2022-11-20T04:59:50.144Z,100328.38
2022-11-20T05:02:19.572Z,100333.63
2022-11-20T05:04:47.462Z,100334.63
2022-11-20T05:07:15.594Z,100324.97
2022-11-20T05:09:43.717Z,100333.56
2022-11-20T05:12:11.908Z,100336.81
2022-11-20T05:14:39.741Z,100337.78
2022-11-20T05:17:07.730Z,100339.59
2022-11-20T05:19:37.207Z,100336.03
2022-11-20T05:22:06.186Z,100334.34
2022-11-20T05:24:34.048Z,100339.66
2022-11-20T05:27:01.940Z,100338.00
2022-11-20T05:29:29.825Z,100338.34
2022-11-20T05:31:57.802Z,100332.72
2022-11-20T05:34:25.691Z,100337.03
2022-11-20T05:36:54.936Z,100324.84
2022-11-20T05:39:23.254Z,100329.50
2022-11-20T05:42:11.517Z,100323.94
2022-11-20T05:44:39.585Z,100326.78
2022-11-20T05:47:07.920Z,100327.16
2022-11-20T05:49:35.754Z,100324.94
2022-11-20T05:52:05.104Z,100333.78
2022-11-20T05:54:33.104Z,100336.06
2022-11-20T05:57:01.224Z,100336.50
2022-11-20T05:59:29.181Z,100327.44
2022-11-20T06:01:57.065Z,100319.03
2022-11-20T06:04:25.008Z,100320.53
2022-11-20T06:06:52.865Z,100315.13
2022-11-20T06:09:22.442Z,100320.56
2022-11-20T06:11:50.477Z,100325.13
2022-11-20T06:14:18.360Z,100323.31
2022-11-20T06:16:46.345Z,100318.00
2022-11-20T06:19:14.513Z,100325.25
2022-11-20T06:21:42.545Z,100321.34
2022-11-20T06:24:11.280Z,100318.88
2022-11-20T06:26:40.497Z,100329.13
2022-11-20T06:29:08.475Z,100321.28
2022-11-20T06:31:38.635Z,100326.59
2022-11-20T06:34:07.057Z,100329.28
2022-11-20T06:36:35.016Z,100323.31
2022-11-20T06:39:02.922Z,100324.00
2022-11-20T06:41:30.881Z,100328.38
2022-11-20T06:44:00.112Z,100322.69
2022-11-20T06:46:28.227Z,100325.38
2022-11-20T06:48:56.069Z,100325.19
2022-11-20T06:51:23.960Z,100331.78
2022-11-20T06:53:51.779Z,100332.78
2022-11-20T06:56:19.639Z,100337.19
2022-11-20T06:58:47.698Z,100340.25
2022-11-20T07:01:17.635Z,100340.84
2022-11-20T07:03:47.995Z,100330.94
2022-11-20T07:06:19.433Z,100340.00
2022-11-20T07:08:47.911Z,100340.00
2022-11-20T07:11:15.845Z,100343.72
2022-11-20T07:13:43.861Z,100352.19
2022-11-20T07:16:12.478Z,100346.63
2022-11-20T07:18:45.953Z,100347.00
2022-11-20T07:21:17.035Z,100342.56
2022-11-20T07:23:44.871Z,100350.22
2022-11-20T07:26:12.997Z,100359.47
2022-11-20T07:28:40.864Z,100362.25
2022-11-20T07:31:08.839Z,100365.00
2022-11-20T07:33:36.862Z,100365.00
2022-11-20T07:36:06.658Z,100362.31
2022-11-20T07:38:34.534Z,100367.22
2022-11-20T07:41:02.847Z,100361.94
2022-11-20T07:43:30.834Z,100353.22
2022-11-20T07:45:58.805Z,100359.16
2022-11-20T07:48:26.953Z,100354.94
2022-11-20T07:50:55.504Z,100353.19
2022-11-20T07:53:25.040Z,100345.47
2022-11-20T07:55:53.753Z,100351.53
2022-11-20T07:58:22.021Z,100358.50
2022-11-20T08:00:49.950Z,100357.94
2022-11-20T08:03:24.102Z,100348.47
2022-11-20T08:05:53.299Z,100345.50
2022-11-20T08:08:21.407Z,100348.44
2022-11-20T08:10:50.596Z,100343.94
2022-11-20T08:13:35.986Z,100334.22
2022-11-20T08:16:03.992Z,100340.84
2022-11-20T08:18:32.975Z,100332.72
2022-11-20T08:21:03.411Z,100324.72
2022-11-20T08:23:31.380Z,100325.66
2022-11-20T08:26:00.777Z,100321.41
2022-11-20T08:28:28.996Z,100316.28
2022-11-20T08:30:59.477Z,100321.22
2022-11-20T08:33:27.394Z,100328.88
2022-11-20T08:35:55.320Z,100321.16
2022-11-20T08:38:23.265Z,100319.47
2022-11-20T08:41:05.179Z,100319.81
2022-11-20T08:43:34.667Z,100320.41
2022-11-20T08:46:02.553Z,100320.34
2022-11-20T08:48:30.454Z,100323.75
2022-11-20T08:50:59.755Z,100313.94
2022-11-20T08:53:27.623Z,100307.69
2022-11-20T08:55:55.791Z,100300.41
2022-11-20T08:58:23.804Z,100308.69
2022-11-20T09:00:53.108Z,100318.19
2022-11-20T09:03:21.048Z,100325.63
2022-11-20T09:05:49.002Z,100317.06
2022-11-20T09:08:17.017Z,100315.47
2022-11-20T09:10:44.868Z,100309.19
2022-11-20T09:13:12.825Z,100321.78
2022-11-20T09:15:40.698Z,100326.53
2022-11-20T09:18:09.903Z,100319.50
2022-11-20T09:20:38.120Z,100317.31
2022-11-20T09:23:06.016Z,100318.78
2022-11-20T09:25:34.010Z,100313.53
2022-11-20T09:28:01.947Z,100311.00
2022-11-20T09:30:29.862Z,100308.06
2022-11-20T09:32:57.787Z,100298.28
2022-11-20T09:35:27.031Z,100291.09
2022-11-20T09:37:54.920Z,100292.50
2022-11-20T09:40:24.106Z,100279.03
2022-11-20T09:42:56.152Z,100285.66
2022-11-20T09:45:26.638Z,100280.06
2022-11-20T09:48:06.937Z,100291.34
2022-11-20T09:50:38.805Z,100278.34
2022-11-20T09:53:13.048Z,100280.19
2022-11-20T09:55:41.632Z,100277.13
2022-11-20T09:58:16.227Z,100285.09
2022-11-20T10:00:44.402Z,100274.28
2022-11-20T10:03:15.823Z,100284.78
2022-11-20T10:05:47.029Z,100268.34
2022-11-20T10:08:18.656Z,100263.81
2022-11-20T10:10:52.492Z,100274.28
2022-11-20T10:13:32.138Z,100275.41
2022-11-20T10:16:05.599Z,100272.09
2022-11-20T10:18:41.562Z,100275.38
2022-11-20T10:21:15.554Z,100273.56
2022-11-20T10:23:56.700Z,100261.47
2022-11-20T10:26:28.508Z,100258.53
2022-11-20T10:29:04.703Z,100254.16
2022-11-20T10:31:37.023Z,100263.47
2022-11-20T10:34:12.473Z,100251.97
2022-11-20T10:36:46.070Z,100255.31
2022-11-20T10:39:18.930Z,100244.34
2022-11-20T10:41:50.897Z,100248.06
2022-11-20T10:44:39.863Z,100244.81
2022-11-20T10:47:14.064Z,100253.47
2022-11-20T10:49:43.458Z,100247.84
2022-11-20T10:52:15.520Z,100249.22
2022-11-20T10:54:48.614Z,100248.13
2022-11-20T10:57:22.549Z,100245.16
2022-11-20T11:00:07.489Z,100241.06
2022-11-20T11:02:37.205Z,100233.47
2022-11-20T11:05:14.511Z,100229.66
2022-11-20T11:07:44.312Z,100231.84
2022-11-20T11:10:16.052Z,100237.25
2022-11-20T11:12:45.766Z,100228.31
2022-11-20T11:15:16.335Z,100226.16
2022-11-20T11:17:48.659Z,100223.72
2022-11-20T11:20:18.173Z,100213.41
2022-11-20T11:22:48.607Z,100210.69
2022-11-20T11:25:37.292Z,100211.25
2022-11-20T11:28:06.199Z,100206.91
2022-11-20T11:30:43.108Z,100198.19
2022-11-20T11:33:12.778Z,100199.00
2022-11-20T11:35:49.961Z,100196.06
2022-11-20T11:38:23.349Z,100184.16
2022-11-20T11:40:51.555Z,100182.50
2022-11-20T11:43:36.877Z,100180.06
2022-11-20T11:46:08.181Z,100183.06
2022-11-20T11:48:36.186Z,100170.84
2022-11-20T11:51:04.198Z,100166.53
2022-11-20T11:53:44.068Z,100162.47
2022-11-20T11:56:13.583Z,100153.25
2022-11-20T11:58:45.368Z,100161.63
2022-11-20T12:01:22.806Z,100155.13
2022-11-20T12:03:57.459Z,100162.88
2022-11-20T12:06:27.177Z,100152.09
2022-11-20T12:08:59.814Z,100156.22
2022-11-20T12:11:33.281Z,100145.38
2022-11-20T12:14:05.661Z,100137.91
2022-11-20T12:16:37.375Z,100139.63
2022-11-20T12:19:09.980Z,100137.00
2022-11-20T12:21:42.056Z,100133.19
2022-11-20T12:24:41.708Z,100127.78
2022-11-20T12:27:23.393Z,100129.38
2022-11-20T12:29:57.679Z,100110.31
2022-11-20T12:32:36.804Z,100110.56
2022-11-20T12:35:12.209Z,100110.94
2022-11-20T12:37:47.259Z,100101.22
2022-11-20T12:40:25.192Z,100095.53
2022-11-20T12:43:17.848Z,100101.25
2022-11-20T12:46:08.149Z,100102.31
2022-11-20T12:48:46.404Z,100094.72
2022-11-20T12:51:33.840Z,100089.03
2022-11-20T12:54:11.155Z,100103.53
2022-11-20T12:56:45.816Z,100090.78
2022-11-20T12:59:23.064Z,100090.25
2022-11-20T13:02:06.521Z,100087.00
2022-11-20T13:04:42.742Z,100084.84
2022-11-20T13:07:13.612Z,100073.97
2022-11-20T13:09:47.388Z,100072.00
2022-11-20T13:12:20.330Z,100069.09
2022-11-20T13:14:54.815Z,100059.91
2022-11-20T13:17:26.874Z,100052.28
2022-11-20T13:19:55.979Z,100038.47
2022-11-20T13:22:27.659Z,100040.38
2022-11-20T13:24:55.786Z,100027.41
2022-11-20T13:27:25.486Z,100026.84
2022-11-20T13:30:04.622Z,100022.56
2022-11-20T13:32:33.315Z,100014.97
2022-11-20T13:35:02.665Z,100009.28
2022-11-20T13:37:32.049Z,100009.34
2022-11-20T13:40:18.945Z,100005.28
2022-11-20T13:42:56.388Z,100006.91
2022-11-20T13:45:27.171Z,100011.19
2022-11-20T13:47:55.755Z,100006.31
2022-11-20T13:50:31.236Z,100001.19
2022-11-20T13:53:05.371Z,100007.09
2022-11-20T13:55:38.617Z,100010.31
2022-11-20T13:58:29.440Z,100011.69
2022-11-20T14:01:01.223Z,100009.25
2022-11-20T14:03:58.997Z,100005.22
2022-11-20T14:06:25.366Z,100000.38
2022-11-20T14:08:53.662Z,99982.25
2022-11-20T14:11:22.609Z,99982.53
2022-11-20T14:13:59.667Z,99965.78
2022-11-20T14:16:29.662Z,99963.91
2022-11-20T14:18:59.841Z,99952.84
2022-11-20T14:21:29.199Z,99954.94
2022-11-20T14:24:05.249Z,99957.09
2022-11-20T14:26:33.660Z,99950.00
2022-11-20T14:29:03.539Z,99949.69
2022-11-20T14:31:31.896Z,99942.94
2022-11-20T14:34:00.755Z,99929.16
2022-11-20T14:36:29.519Z,99933.75
2022-11-20T14:38:57.722Z,99921.34
2022-11-20T14:41:40.228Z,99925.91
2022-11-20T14:44:11.966Z,99925.09
2022-11-20T14:46:40.803Z,99914.22
2022-11-20T14:49:12.295Z,99906.09
2022-11-20T14:51:43.143Z,99897.72
2022-11-20T14:54:16.251Z,99899.03
2022-11-20T14:56:55.067Z,99898.19
2022-11-20T14:59:26.263Z,99888.25
2022-11-20T15:01:58.747Z,99888.50
2022-11-20T15:04:27.032Z,99875.81
2022-11-20T15:06:56.486Z,99880.34
2022-11-20T15:09:24.732Z,99874.59
2022-11-20T15:11:55.519Z,99877.84
2022-11-20T15:14:23.791Z,99871.94
2022-11-20T15:16:54.203Z,99863.81
2022-11-20T15:19:23.292Z,99863.31
2022-11-20T15:21:51.488Z,99856.25
2022-11-20T15:24:20.167Z,99859.53
2022-11-20T15:26:48.654Z,99847.13
2022-11-20T15:29:19.598Z,99851.47
2022-11-20T15:31:47.476Z,99850.69
2022-11-20T15:34:17.540Z,99852.28
2022-11-20T15:36:45.528Z,99842.56
2022-11-20T15:39:13.457Z,99850.41
2022-11-20T15:41:41.527Z,99834.22
2022-11-20T15:44:09.497Z,99831.53
2022-11-20T15:46:39.214Z,99833.09
2022-11-20T15:49:07.597Z,99821.78
2022-11-20T15:51:37.829Z,99817.94
2022-11-20T15:54:12.174Z,99810.34
2022-11-20T15:56:40.529Z,99807.63
2022-11-20T15:59:08.646Z,99793.06
2022-11-20T16:01:37.443Z,99790.91
2022-11-20T16:04:07.058Z,99778.16
2022-11-20T16:06:34.960Z,99783.88
2022-11-20T16:09:04.812Z,99770.88
2022-11-20T16:11:32.929Z,99767.09
2022-11-20T16:14:18.442Z,99764.38
2022-11-20T16:16:46.495Z,99762.22
2022-11-20T16:19:26.685Z,99763.56
2022-11-20T16:21:59.676Z,99754.13
2022-11-20T16:24:31.983Z,99755.75
2022-11-20T16:26:59.872Z,99743.63
2022-11-20T16:29:27.818Z,99753.84
2022-11-20T16:31:55.956Z,99760.34
2022-11-20T16:34:25.299Z,99757.44
2022-11-20T16:36:53.693Z,99751.97
2022-11-20T16:39:23.827Z,99751.44
2022-11-20T16:41:53.434Z,99756.31
2022-11-20T16:44:22.299Z,99759.00
2022-11-20T16:46:50.721Z,99756.31
2022-11-20T16:49:18.748Z,99746.84
2022-11-20T16:51:46.892Z,99747.09
2022-11-20T16:54:19.429Z,99744.13
2022-11-20T16:56:50.893Z,99737.38
2022-11-20T16:59:20.229Z,99730.94
2022-11-20T17:01:48.239Z,99727.13
2022-11-20T17:04:16.574Z,99724.75
2022-11-20T17:06:45.177Z,99720.69
2022-11-20T17:09:13.914Z,99723.66
2022-11-20T17:11:41.868Z,99717.19
2022-11-20T17:14:11.306Z,99715.81
2022-11-20T17:16:40.583Z,99710.72
2022-11-20T17:19:08.913Z,99709.91
2022-11-20T17:21:37.281Z,99690.44
2022-11-20T17:24:06.081Z,99697.50
2022-11-20T17:26:34.157Z,99685.59
2022-11-20T17:29:03.257Z,99685.91
2022-11-20T17:31:32.476Z,99682.94
2022-11-20T17:34:02.365Z,99680.50
2022-11-20T17:36:30.703Z,99669.69
2022-11-20T17:38:58.871Z,99658.94
2022-11-20T17:41:27.693Z,99651.34
2022-11-20T17:43:56.102Z,99653.25
2022-11-20T17:46:25.263Z,99641.09
2022-11-20T17:48:53.610Z,99640.00
2022-11-20T17:51:24.505Z,99634.34
2022-11-20T17:53:53.374Z,99627.38
2022-11-20T17:56:38.847Z,99625.22
2022-11-20T17:59:07.684Z,99615.78
2022-11-20T18:01:36.039Z,99610.13
2022-11-20T18:04:04.393Z,99595.28
2022-11-20T18:06:33.898Z,99595.00
2022-11-20T18:09:02.923Z,99585.84
2022-11-20T18:11:33.599Z,99574.50
2022-11-20T18:14:19.620Z,99573.44
2022-11-20T18:16:48.857Z,99562.66
2022-11-20T18:19:18.302Z,99561.03
2022-11-20T18:21:47.666Z,99547.53
2022-11-20T18:24:16.060Z,99544.84
2022-11-20T18:26:44.668Z,99540.56
2022-11-20T18:29:13.107Z,99540.00
2022-11-20T18:31:41.384Z,99542.16
2022-11-20T18:34:12.137Z,99524.38
2022-11-20T18:36:40.188Z,99524.38
2022-11-20T18:39:11.225Z,99514.13
2022-11-20T18:41:56.800Z,99510.06
2022-11-20T18:44:43.828Z,99510.06
2022-11-20T18:47:14.882Z,99495.78
2022-11-20T18:49:44.141Z,99485.53
2022-11-20T18:52:12.493Z,99485.53
2022-11-20T18:54:41.979Z,99473.94
2022-11-20T18:57:14.689Z,99469.91
2022-11-20T18:59:43.981Z,99470.72
2022-11-20T19:02:13.292Z,99482.81
2022-11-20T19:04:41.806Z,99455.88
2022-11-20T19:07:12.021Z,99456.66
2022-11-20T19:09:40.462Z,99454.22
2022-11-20T19:12:11.020Z,99440.19
2022-11-20T19:14:39.593Z,99446.13
2022-11-20T19:17:08.794Z,99438.53
2022-11-20T19:19:37.346Z,99435.84
2022-11-20T19:22:06.165Z,99432.59
2022-11-20T19:24:34.746Z,99425.53
2022-11-20T19:27:02.951Z,99408.28
2022-11-20T19:29:32.294Z,99411.50
2022-11-20T19:32:00.341Z,99404.00
2022-11-20T19:34:28.295Z,99396.97
2022-11-20T19:36:56.443Z,99388.03
2022-11-20T19:39:24.832Z,99386.19
2022-11-20T19:41:52.884Z,99385.09
2022-11-20T19:44:20.926Z,99380.72
2022-11-20T19:46:58.645Z,99369.94
2022-11-20T19:49:26.847Z,99375.31
2022-11-20T19:51:54.982Z,99362.38
2022-11-20T19:54:23.054Z,99355.88
2022-11-20T19:56:51.065Z,99357.22
2022-11-20T19:59:19.266Z,99359.38
2022-11-20T20:01:47.322Z,99353.16
2022-11-20T20:04:16.579Z,99349.38
2022-11-20T20:06:44.500Z,99352.13
2022-11-20T20:09:13.948Z,99352.38
2022-11-20T20:11:46.050Z,99352.06
2022-11-20T20:14:15.099Z,99352.63
2022-11-20T20:16:43.577Z,99350.47
2022-11-20T20:19:13.265Z,99349.41
2022-11-20T20:21:42.798Z,99350.47
2022-11-20T20:24:11.424Z,99349.69
2022-11-20T20:26:39.703Z,99351.00
2022-11-20T20:29:09.794Z,99356.94
2022-11-20T20:31:38.221Z,99352.53
2022-11-20T20:34:06.700Z,99363.31
2022-11-20T20:36:34.969Z,99358.69
2022-11-20T20:39:04.672Z,99350.31
2022-11-20T20:41:32.883Z,99347.13
2022-11-20T20:44:19.812Z,99355.50
2022-11-20T20:46:48.037Z,99357.38
2022-11-20T20:49:16.234Z,99360.59
2022-11-20T20:51:44.506Z,99358.94
2022-11-20T20:54:13.888Z,99367.03
2022-11-20T20:56:41.758Z,99373.75
2022-11-20T20:59:09.806Z,99373.50
2022-11-20T21:01:37.819Z,99388.13
2022-11-20T21:04:05.859Z,99380.00
2022-11-20T21:06:33.752Z,99387.06
2022-11-20T21:09:01.559Z,99389.78
2022-11-20T21:11:31.025Z,99399.47
2022-11-20T21:13:58.904Z,99403.25
2022-11-20T21:16:29.404Z,99412.72
2022-11-20T21:18:57.433Z,99422.44
2022-11-20T21:21:54.422Z,99420.53
2022-11-20T21:24:23.270Z,99421.09
2022-11-20T21:26:53.258Z,99423.81
2022-11-20T21:29:21.300Z,99432.50
2022-11-20T21:31:49.319Z,99430.88
2022-11-20T21:34:18.487Z,99424.97
2022-11-20T21:36:46.611Z,99436.34
2022-11-20T21:39:15.841Z,99442.81
2022-11-20T21:41:44.244Z,99457.38
2022-11-20T21:44:31.660Z,99448.72
2022-11-20T21:47:00.374Z,99456.56
2022-11-20T21:49:28.475Z,99463.34
2022-11-20T21:51:56.545Z,99472.50
2022-11-20T21:54:24.754Z,99470.09
2022-11-20T21:56:53.067Z,99477.91
2022-11-20T21:59:23.193Z,99482.00
2022-11-20T22:01:51.276Z,99484.94
2022-11-20T22:04:20.008Z,99477.91
2022-11-20T22:06:48.700Z,99482.22
2022-11-20T22:09:16.706Z,99489.00
2022-11-20T22:11:44.774Z,99486.59
2022-11-20T22:14:22.123Z,99489.28
2022-11-20T22:16:52.824Z,99494.69
2022-11-20T22:19:21.856Z,99495.78
2022-11-20T22:21:50.777Z,99489.56
2022-11-20T22:24:19.921Z,99501.44
2022-11-20T22:26:48.584Z,99505.22
2022-11-20T22:29:17.757Z,99509.53
2022-11-20T22:31:45.740Z,99520.59
2022-11-20T22:34:15.523Z,99517.13
2022-11-20T22:36:43.418Z,99523.84
2022-11-20T22:39:11.343Z,99523.31
2022-11-20T22:41:39.587Z,99533.56
2022-11-20T22:44:09.850Z,99541.09
2022-11-20T22:46:40.016Z,99549.75
2022-11-20T22:49:09.646Z,99548.69
2022-11-20T22:51:39.900Z,99560.00
2022-11-20T22:54:09.900Z,99572.16
2022-11-20T22:56:38.345Z,99564.84
2022-11-20T22:59:06.976Z,99571.34
2022-11-20T23:01:36.736Z,99571.34
2022-11-20T23:04:05.628Z,99576.97
2022-11-20T23:06:34.452Z,99580.50
2022-11-20T23:09:04.272Z,99584.81
2022-11-20T23:11:32.558Z,99579.69
2022-11-20T23:14:01.337Z,99585.63
2022-11-20T23:16:32.720Z,99582.94
2022-11-20T23:19:01.940Z,99598.56
2022-11-20T23:21:30.087Z,99599.41
2022-11-20T23:23:59.008Z,99604.25
2022-11-20T23:26:29.124Z,99601.28
2022-11-20T23:28:58.679Z,99608.00
2022-11-20T23:31:28.119Z,99616.63
2022-11-20T23:33:56.997Z,99617.97
2022-11-20T23:36:25.169Z,99619.34
2022-11-20T23:38:53.129Z,99618.00
2022-11-20T23:41:21.129Z,99617.19
2022-11-20T23:43:50.577Z,99615.59
2022-11-20T23:46:18.632Z,99617.19
2022-11-20T23:48:46.677Z,99617.97
2022-11-20T23:51:14.926Z,99612.56
2022-11-20T23:53:43.033Z,99622.28
2022-11-20T23:56:14.127Z,99620.38
2022-11-20T23:58:42.134Z,99629.56
